ETD403 VTBS-OMAA
Flight info
| Callsign | ETD403 |
|---|---|
| Flight time | N/A |
| Altitude | 34000 |
| Route | N0450F340 DCT PASTO L301 DWI M506 KAMKO L524 NNP G472 AAE L639 RASKI N881 KIPOL L444 TOLDA M628 TULBU N563 NOBTO DCT |
| Aircraft | B77W/H-SDE3FGIRWY/LB1D1 |
Departure
| Time | 2026-05-06 03:19 |
|---|---|
| Airport | Suvarnabhumi Airport (VTBS) |
Arrival
| Time | N/A |
|---|---|
| Airport | Zayed International Airport (OMAA) |
| Time | Latitude | Longitude | Altitude | Speed | Heading |
|---|---|---|---|---|---|
| 2026-05-06 03:13 | 13.69196 | 100.74233 | 18 ft | 3 kts | 268° |
| 2026-05-06 03:13 | 13.69205 | 100.74216 | 18 ft | 3 kts | 316° |
| 2026-05-06 03:13 | 13.69225 | 100.74211 | 18 ft | 3 kts | 356° |
| 2026-05-06 03:13 | 13.69245 | 100.74215 | 18 ft | 3 kts | 11° |
| 2026-05-06 03:14 | 13.69266 | 100.74220 | 18 ft | 3 kts | 13° |
| 2026-05-06 03:14 | 13.69310 | 100.74231 | 18 ft | 17 kts | 13° |
| 2026-05-06 03:14 | 13.69467 | 100.74271 | 17 ft | 25 kts | 15° |
| 2026-05-06 03:14 | 13.69634 | 100.74318 | 18 ft | 25 kts | 15° |
| 2026-05-06 03:15 | 13.69801 | 100.74360 | 18 ft | 25 kts | 13° |
| 2026-05-06 03:15 | 13.69967 | 100.74405 | 18 ft | 25 kts | 14° |
| 2026-05-06 03:15 | 13.70120 | 100.74444 | 18 ft | 20 kts | 14° |
| 2026-05-06 03:15 | 13.70203 | 100.74455 | 18 ft | 7 kts | 341° |
| 2026-05-06 03:16 | 13.70228 | 100.74417 | 18 ft | 7 kts | 293° |
| 2026-05-06 03:16 | 13.70240 | 100.74371 | 19 ft | 7 kts | 283° |
| 2026-05-06 03:16 | 13.70249 | 100.74324 | 19 ft | 7 kts | 281° |
| 2026-05-06 03:16 | 13.70227 | 100.74285 | 19 ft | 7 kts | 214° |
| 2026-05-06 03:17 | 13.70182 | 100.74270 | 19 ft | 7 kts | 195° |
| 2026-05-06 03:17 | 13.70169 | 100.74267 | 19 ft | 0 kts | 194° |
| 2026-05-06 03:18 | 13.70147 | 100.74261 | 19 ft | 20 kts | 194° |
| 2026-05-06 03:18 | 13.69738 | 100.74157 | 17 ft | 100 kts | 194° |
| 2026-05-06 03:18 | 13.68833 | 100.73920 | 19 ft | 166 kts | 194° |
| 2026-05-06 03:19 | 13.67574 | 100.73587 | 229 ft | 197 kts | 194° |
| 2026-05-06 03:19 | 13.66217 | 100.73220 | 793 ft | 205 kts | 194° |
| 2026-05-06 03:19 | 13.64807 | 100.72869 | 1391 ft | 210 kts | 193° |
| 2026-05-06 03:19 | 13.63374 | 100.72522 | 2005 ft | 217 kts | 194° |
| 2026-05-06 03:20 | 13.60282 | 100.71675 | 3009 ft | 245 kts | 194° |
| 2026-05-06 03:20 | 13.58594 | 100.71220 | 3529 ft | 256 kts | 194° |
| 2026-05-06 03:20 | 13.56827 | 100.70749 | 3953 ft | 269 kts | 194° |
| 2026-05-06 03:21 | 13.55065 | 100.70069 | 4407 ft | 276 kts | 214° |
| 2026-05-06 03:21 | 13.53760 | 100.68634 | 4895 ft | 278 kts | 243° |
| 2026-05-06 03:21 | 13.53285 | 100.66721 | 5363 ft | 279 kts | 270° |
| 2026-05-06 03:21 | 13.53585 | 100.64758 | 5863 ft | 279 kts | 285° |
| 2026-05-06 03:22 | 13.54086 | 100.62803 | 6387 ft | 287 kts | 285° |
| 2026-05-06 03:22 | 13.54595 | 100.60808 | 6844 ft | 288 kts | 285° |
| 2026-05-06 03:22 | 13.55402 | 100.58949 | 7268 ft | 287 kts | 310° |
| 2026-05-06 03:22 | 13.56947 | 100.57686 | 7743 ft | 286 kts | 338° |
| 2026-05-06 03:23 | 13.58872 | 100.57214 | 8244 ft | 286 kts | 359° |
| 2026-05-06 03:23 | 13.60865 | 100.57251 | 8760 ft | 288 kts | 3° |
| 2026-05-06 03:23 | 13.62888 | 100.57325 | 9263 ft | 293 kts | 3° |
| 2026-05-06 03:23 | 13.64942 | 100.57395 | 9785 ft | 297 kts | 2° |
| 2026-05-06 03:24 | 13.67026 | 100.57460 | 10238 ft | 303 kts | 2° |
| 2026-05-06 03:24 | 13.69151 | 100.57523 | 10737 ft | 316 kts | 2° |
| 2026-05-06 03:24 | 13.71390 | 100.57585 | 11244 ft | 328 kts | 2° |
| 2026-05-06 03:24 | 13.73717 | 100.57647 | 11756 ft | 341 kts | 2° |
| 2026-05-06 03:25 | 13.76157 | 100.57707 | 12264 ft | 351 kts | 0° |
| 2026-05-06 03:25 | 13.78554 | 100.57311 | 12726 ft | 362 kts | 339° |
| 2026-05-06 03:25 | 13.80767 | 100.56049 | 13264 ft | 367 kts | 328° |
| 2026-05-06 03:25 | 13.82986 | 100.54598 | 13814 ft | 378 kts | 328° |
| 2026-05-06 03:26 | 13.85209 | 100.53158 | 14272 ft | 387 kts | 329° |
| 2026-05-06 03:26 | 13.87525 | 100.51683 | 14743 ft | 396 kts | 329° |
| 2026-05-06 03:26 | 13.89903 | 100.50184 | 15226 ft | 405 kts | 329° |
| 2026-05-06 03:26 | 13.92236 | 100.48549 | 15676 ft | 408 kts | 317° |
| 2026-05-06 03:27 | 13.93975 | 100.46218 | 16157 ft | 416 kts | 298° |
| 2026-05-06 03:28 | 13.96121 | 100.34128 | 18226 ft | 435 kts | 278° |
| 2026-05-06 03:28 | 13.96540 | 100.31027 | 18675 ft | 440 kts | 278° |
| 2026-05-06 03:28 | 13.96979 | 100.27893 | 19113 ft | 444 kts | 278° |
| 2026-05-06 03:28 | 13.97428 | 100.24724 | 19572 ft | 448 kts | 278° |
| 2026-05-06 03:29 | 13.97762 | 100.21532 | 20031 ft | 452 kts | 274° |
| 2026-05-06 03:29 | 13.97870 | 100.18289 | 20502 ft | 455 kts | 271° |
| 2026-05-06 03:29 | 13.97906 | 100.15025 | 20977 ft | 458 kts | 271° |
| 2026-05-06 03:29 | 13.97966 | 100.11736 | 21454 ft | 461 kts | 272° |
| 2026-05-06 03:30 | 13.98071 | 100.08426 | 21949 ft | 463 kts | 272° |
| 2026-05-06 03:30 | 13.98197 | 100.05107 | 22444 ft | 465 kts | 272° |
| 2026-05-06 03:30 | 13.98322 | 100.01783 | 22954 ft | 467 kts | 272° |
| 2026-05-06 03:30 | 13.98444 | 99.98439 | 23466 ft | 468 kts | 272° |
| 2026-05-06 03:31 | 13.98564 | 99.95086 | 23894 ft | 469 kts | 272° |
| 2026-05-06 03:31 | 13.98685 | 99.91717 | 24327 ft | 471 kts | 272° |
| 2026-05-06 03:31 | 13.98804 | 99.88347 | 24762 ft | 472 kts | 272° |
| 2026-05-06 03:31 | 13.98923 | 99.84971 | 25209 ft | 472 kts | 272° |
| 2026-05-06 03:32 | 13.99042 | 99.81590 | 25657 ft | 473 kts | 272° |
| 2026-05-06 03:32 | 13.99161 | 99.78208 | 26116 ft | 473 kts | 272° |
| 2026-05-06 03:32 | 13.99279 | 99.74818 | 26583 ft | 474 kts | 272° |
| 2026-05-06 03:32 | 13.99397 | 99.71420 | 27057 ft | 474 kts | 272° |
| 2026-05-06 03:33 | 13.99515 | 99.68030 | 27548 ft | 475 kts | 272° |
| 2026-05-06 03:33 | 13.99632 | 99.64631 | 28024 ft | 475 kts | 272° |
| 2026-05-06 03:33 | 13.99748 | 99.61234 | 28528 ft | 475 kts | 272° |
| 2026-05-06 03:33 | 13.99865 | 99.57832 | 29035 ft | 475 kts | 272° |
| 2026-05-06 03:34 | 13.99981 | 99.54437 | 29548 ft | 475 kts | 272° |
| 2026-05-06 03:34 | 14.00097 | 99.51032 | 30057 ft | 475 kts | 272° |
| 2026-05-06 03:34 | 14.00275 | 99.47643 | 30490 ft | 475 kts | 275° |
| 2026-05-06 03:34 | 14.00575 | 99.44259 | 30951 ft | 474 kts | 276° |
| 2026-05-06 03:35 | 14.00922 | 99.40936 | 31406 ft | 473 kts | 277° |
| 2026-05-06 03:35 | 14.01283 | 99.37578 | 31856 ft | 471 kts | 277° |
| 2026-05-06 03:35 | 14.01634 | 99.34229 | 32334 ft | 470 kts | 276° |
| 2026-05-06 03:35 | 14.01970 | 99.30892 | 32810 ft | 467 kts | 276° |
| 2026-05-06 03:36 | 14.02297 | 99.27532 | 33296 ft | 465 kts | 276° |
| 2026-05-06 03:36 | 14.02609 | 99.24263 | 33777 ft | 463 kts | 276° |
| 2026-05-06 03:36 | 14.02921 | 99.20958 | 33920 ft | 468 kts | 276° |
| 2026-05-06 03:36 | 14.03238 | 99.17603 | 33920 ft | 474 kts | 276° |
| 2026-05-06 03:37 | 14.03884 | 99.10759 | 33930 ft | 486 kts | 276° |
| 2026-05-06 03:37 | 14.04545 | 99.03755 | 33929 ft | 496 kts | 276° |
| 2026-05-06 03:38 | 14.05214 | 98.96625 | 33927 ft | 504 kts | 276° |
| 2026-05-06 03:38 | 14.05736 | 98.89376 | 33929 ft | 510 kts | 274° |
| 2026-05-06 03:39 | 14.06170 | 98.82049 | 33928 ft | 515 kts | 274° |
| 2026-05-06 03:39 | 14.06627 | 98.74667 | 33918 ft | 517 kts | 275° |
| 2026-05-06 03:40 | 14.07101 | 98.67265 | 33920 ft | 518 kts | 275° |
| 2026-05-06 03:40 | 14.07579 | 98.59857 | 33918 ft | 518 kts | 275° |
| 2026-05-06 03:41 | 14.08052 | 98.52473 | 33920 ft | 516 kts | 275° |
| 2026-05-06 03:41 | 14.08519 | 98.45120 | 33907 ft | 513 kts | 275° |
| 2026-05-06 03:42 | 14.08983 | 98.37793 | 33908 ft | 512 kts | 275° |
| 2026-05-06 03:42 | 14.09440 | 98.30534 | 33903 ft | 511 kts | 275° |
| 2026-05-06 03:43 | 14.10134 | 98.23272 | 33899 ft | 509 kts | 283° |
| 2026-05-06 03:43 | 14.12236 | 98.16349 | 33902 ft | 507 kts | 295° |
| 2026-05-06 03:44 | 14.15472 | 98.09905 | 33906 ft | 507 kts | 299° |
| 2026-05-06 03:44 | 14.18852 | 98.03523 | 33896 ft | 508 kts | 299° |
| 2026-05-06 03:45 | 14.22207 | 97.97112 | 33895 ft | 508 kts | 299° |
| 2026-05-06 03:45 | 14.25531 | 97.90673 | 33892 ft | 509 kts | 298° |
| 2026-05-06 03:46 | 14.28844 | 97.84221 | 33893 ft | 509 kts | 298° |
| 2026-05-06 03:46 | 14.32151 | 97.77775 | 33888 ft | 509 kts | 298° |
| 2026-05-06 03:47 | 14.35457 | 97.71332 | 33888 ft | 508 kts | 298° |
| 2026-05-06 03:47 | 14.38760 | 97.64892 | 33893 ft | 508 kts | 298° |
| 2026-05-06 03:48 | 14.42058 | 97.58458 | 33892 ft | 507 kts | 298° |
| 2026-05-06 03:48 | 14.45354 | 97.52021 | 33889 ft | 507 kts | 298° |
| 2026-05-06 03:49 | 14.48644 | 97.45590 | 33897 ft | 507 kts | 298° |
| 2026-05-06 03:49 | 14.51933 | 97.39158 | 33897 ft | 507 kts | 298° |
| 2026-05-06 03:50 | 14.55221 | 97.32721 | 33893 ft | 507 kts | 298° |
| 2026-05-06 03:50 | 14.58511 | 97.26274 | 33894 ft | 508 kts | 298° |
| 2026-05-06 03:51 | 14.61800 | 97.19824 | 33894 ft | 508 kts | 298° |
| 2026-05-06 03:51 | 14.65089 | 97.13368 | 33895 ft | 508 kts | 298° |
| 2026-05-06 03:52 | 14.68357 | 97.06949 | 33894 ft | 508 kts | 298° |
| 2026-05-06 03:52 | 14.71642 | 97.00490 | 33892 ft | 508 kts | 298° |
| 2026-05-06 03:53 | 14.74945 | 96.93990 | 33893 ft | 508 kts | 298° |
| 2026-05-06 03:53 | 14.78208 | 96.87566 | 33891 ft | 507 kts | 298° |
| 2026-05-06 03:54 | 14.81485 | 96.81107 | 33889 ft | 507 kts | 298° |
| 2026-05-06 03:54 | 14.84756 | 96.74654 | 33886 ft | 507 kts | 298° |
| 2026-05-06 03:55 | 14.88023 | 96.68204 | 33889 ft | 507 kts | 298° |
| 2026-05-06 03:55 | 14.91290 | 96.61748 | 33893 ft | 506 kts | 298° |
| 2026-05-06 03:56 | 14.94004 | 96.56380 | 33894 ft | 506 kts | 298° |
| 2026-05-06 03:56 | 14.97266 | 96.49924 | 33894 ft | 506 kts | 298° |
| 2026-05-06 03:57 | 15.00525 | 96.43468 | 33894 ft | 506 kts | 298° |
| 2026-05-06 03:57 | 15.04310 | 96.35964 | 33891 ft | 506 kts | 298° |
| 2026-05-06 03:58 | 15.07033 | 96.30560 | 33892 ft | 506 kts | 298° |
| 2026-05-06 03:58 | 15.10281 | 96.24109 | 33890 ft | 505 kts | 298° |
| 2026-05-06 03:59 | 15.13526 | 96.17659 | 33889 ft | 505 kts | 298° |
| 2026-05-06 03:59 | 15.16766 | 96.11214 | 33892 ft | 504 kts | 297° |
| 2026-05-06 04:00 | 15.20001 | 96.04772 | 33889 ft | 504 kts | 297° |
| 2026-05-06 04:00 | 15.23210 | 95.98378 | 33892 ft | 504 kts | 297° |
| 2026-05-06 04:01 | 15.26435 | 95.91943 | 33894 ft | 503 kts | 297° |
| 2026-05-06 04:01 | 15.29656 | 95.85513 | 33895 ft | 503 kts | 297° |
| 2026-05-06 04:02 | 15.32869 | 95.79093 | 33890 ft | 502 kts | 297° |
| 2026-05-06 04:02 | 15.36071 | 95.72688 | 33888 ft | 500 kts | 297° |
| 2026-05-06 04:03 | 15.39264 | 95.66298 | 33891 ft | 498 kts | 297° |
| 2026-05-06 04:03 | 15.42440 | 95.59935 | 33892 ft | 496 kts | 297° |
| 2026-05-06 04:04 | 15.45609 | 95.53579 | 33889 ft | 495 kts | 297° |
| 2026-05-06 04:04 | 15.48760 | 95.47256 | 33887 ft | 493 kts | 297° |
| 2026-05-06 04:05 | 15.51901 | 95.40946 | 33887 ft | 492 kts | 297° |
| 2026-05-06 04:05 | 15.55035 | 95.34645 | 33885 ft | 491 kts | 297° |
| 2026-05-06 04:06 | 15.58163 | 95.28352 | 33885 ft | 491 kts | 297° |
| 2026-05-06 04:06 | 15.61289 | 95.22055 | 33884 ft | 491 kts | 297° |
| 2026-05-06 04:07 | 15.64387 | 95.15812 | 33883 ft | 490 kts | 296° |
| 2026-05-06 04:07 | 15.67505 | 95.09521 | 33884 ft | 490 kts | 296° |
| 2026-05-06 04:08 | 15.70620 | 95.03230 | 33881 ft | 490 kts | 296° |
| 2026-05-06 04:08 | 15.73729 | 94.96945 | 33883 ft | 490 kts | 296° |
| 2026-05-06 04:09 | 15.76843 | 94.90648 | 33890 ft | 490 kts | 296° |
| 2026-05-06 04:09 | 15.79960 | 94.84336 | 33882 ft | 491 kts | 296° |
| 2026-05-06 04:10 | 15.83075 | 94.78022 | 33881 ft | 492 kts | 296° |
| 2026-05-06 04:10 | 15.86194 | 94.71696 | 33878 ft | 492 kts | 296° |
| 2026-05-06 04:11 | 15.89312 | 94.65366 | 33885 ft | 492 kts | 296° |
| 2026-05-06 04:11 | 15.92432 | 94.59027 | 33879 ft | 493 kts | 296° |
| 2026-05-06 04:12 | 15.95548 | 94.52688 | 33885 ft | 493 kts | 296° |
| 2026-05-06 04:12 | 15.98661 | 94.46351 | 33888 ft | 492 kts | 296° |
| 2026-05-06 04:13 | 16.01755 | 94.40046 | 33880 ft | 493 kts | 296° |
| 2026-05-06 04:13 | 16.04863 | 94.33707 | 33882 ft | 492 kts | 296° |
| 2026-05-06 04:14 | 16.07970 | 94.27362 | 33882 ft | 492 kts | 296° |
| 2026-05-06 04:14 | 16.11046 | 94.21010 | 33886 ft | 491 kts | 294° |
| 2026-05-06 04:15 | 16.13548 | 94.14408 | 33879 ft | 491 kts | 289° |
| 2026-05-06 04:15 | 16.15905 | 94.07753 | 33883 ft | 490 kts | 289° |
| 2026-05-06 04:16 | 16.18276 | 94.01097 | 33886 ft | 490 kts | 289° |
| 2026-05-06 04:16 | 16.20667 | 93.94446 | 33885 ft | 491 kts | 289° |
| 2026-05-06 04:17 | 16.23062 | 93.87802 | 33883 ft | 491 kts | 289° |
| 2026-05-06 04:17 | 16.25460 | 93.81143 | 33883 ft | 491 kts | 289° |
| 2026-05-06 04:18 | 16.27854 | 93.74485 | 33883 ft | 491 kts | 289° |
| 2026-05-06 04:18 | 16.30249 | 93.67816 | 33885 ft | 492 kts | 289° |
| 2026-05-06 04:19 | 16.32639 | 93.61151 | 33885 ft | 492 kts | 289° |
| 2026-05-06 04:19 | 16.35029 | 93.54480 | 33887 ft | 492 kts | 289° |
| 2026-05-06 04:20 | 16.37418 | 93.47803 | 33888 ft | 492 kts | 289° |
| 2026-05-06 04:20 | 16.39804 | 93.41127 | 33891 ft | 492 kts | 289° |
| 2026-05-06 04:21 | 16.42187 | 93.34454 | 33886 ft | 492 kts | 289° |
| 2026-05-06 04:21 | 16.44568 | 93.27777 | 33888 ft | 492 kts | 289° |
| 2026-05-06 04:22 | 16.46945 | 93.21103 | 33888 ft | 492 kts | 289° |
| 2026-05-06 04:23 | 16.50510 | 93.11081 | 33887 ft | 492 kts | 289° |
| 2026-05-06 04:23 | 16.52883 | 93.04402 | 33889 ft | 492 kts | 289° |
| 2026-05-06 04:24 | 16.55254 | 92.97717 | 33891 ft | 492 kts | 289° |
| 2026-05-06 04:24 | 16.57624 | 92.91030 | 33887 ft | 492 kts | 289° |
| 2026-05-06 04:25 | 16.59994 | 92.84337 | 33890 ft | 492 kts | 289° |
| 2026-05-06 04:25 | 16.62357 | 92.77654 | 33887 ft | 491 kts | 289° |
| 2026-05-06 04:26 | 16.64717 | 92.70971 | 33887 ft | 491 kts | 289° |
| 2026-05-06 04:26 | 16.67076 | 92.64284 | 33888 ft | 491 kts | 289° |
| 2026-05-06 04:27 | 16.69428 | 92.57609 | 33887 ft | 490 kts | 289° |
| 2026-05-06 04:27 | 16.71777 | 92.50934 | 33887 ft | 490 kts | 289° |
| 2026-05-06 04:28 | 16.74123 | 92.44261 | 33886 ft | 490 kts | 289° |
| 2026-05-06 04:28 | 16.76465 | 92.37592 | 33888 ft | 490 kts | 289° |
| 2026-05-06 04:29 | 16.78805 | 92.30918 | 33887 ft | 490 kts | 289° |
| 2026-05-06 04:29 | 16.81128 | 92.24288 | 33888 ft | 490 kts | 289° |
| 2026-05-06 04:30 | 16.83466 | 92.17605 | 33889 ft | 490 kts | 289° |
| 2026-05-06 04:30 | 16.85803 | 92.10918 | 33891 ft | 490 kts | 289° |
| 2026-05-06 04:31 | 16.88135 | 92.04237 | 33889 ft | 490 kts | 289° |
| 2026-05-06 04:31 | 16.90475 | 91.97544 | 33888 ft | 490 kts | 289° |
| 2026-05-06 04:32 | 16.92847 | 91.90870 | 33888 ft | 490 kts | 289° |
| 2026-05-06 04:32 | 16.95227 | 91.84192 | 33886 ft | 490 kts | 289° |
| 2026-05-06 04:33 | 16.97600 | 91.77516 | 33890 ft | 490 kts | 289° |
| 2026-05-06 04:33 | 16.99966 | 91.70836 | 33890 ft | 490 kts | 289° |
| 2026-05-06 04:34 | 17.02330 | 91.64154 | 33890 ft | 490 kts | 289° |
| 2026-05-06 04:34 | 17.04690 | 91.57473 | 33891 ft | 490 kts | 289° |
| 2026-05-06 04:35 | 17.07047 | 91.50797 | 33887 ft | 490 kts | 289° |
| 2026-05-06 04:35 | 17.09403 | 91.44113 | 33889 ft | 490 kts | 289° |
| 2026-05-06 04:36 | 17.11739 | 91.37480 | 33887 ft | 489 kts | 289° |
| 2026-05-06 04:36 | 17.14086 | 91.30806 | 33892 ft | 489 kts | 289° |
| 2026-05-06 04:37 | 17.16433 | 91.24126 | 33889 ft | 489 kts | 289° |
| 2026-05-06 04:37 | 17.18775 | 91.17452 | 33893 ft | 489 kts | 289° |
| 2026-05-06 04:38 | 17.21113 | 91.10780 | 33890 ft | 488 kts | 289° |
| 2026-05-06 04:38 | 17.23446 | 91.04114 | 33891 ft | 488 kts | 289° |
| 2026-05-06 04:39 | 17.25778 | 90.97444 | 33893 ft | 488 kts | 289° |
| 2026-05-06 04:39 | 17.28105 | 90.90783 | 33892 ft | 487 kts | 289° |
| 2026-05-06 04:40 | 17.30428 | 90.84120 | 33887 ft | 487 kts | 289° |
| 2026-05-06 04:40 | 17.32747 | 90.77464 | 33889 ft | 487 kts | 289° |
| 2026-05-06 04:41 | 17.35063 | 90.70808 | 33891 ft | 486 kts | 289° |
| 2026-05-06 04:41 | 17.37376 | 90.64149 | 33893 ft | 486 kts | 288° |
| 2026-05-06 04:42 | 17.39684 | 90.57501 | 33889 ft | 486 kts | 288° |
| 2026-05-06 04:42 | 17.41963 | 90.50843 | 33889 ft | 486 kts | 288° |
| 2026-05-06 04:43 | 17.43785 | 90.45290 | 33888 ft | 485 kts | 287° |
| 2026-05-06 04:43 | 17.45962 | 90.38594 | 33882 ft | 485 kts | 287° |
| 2026-05-06 04:44 | 17.48147 | 90.31899 | 33886 ft | 485 kts | 287° |
| 2026-05-06 04:44 | 17.50333 | 90.25218 | 33890 ft | 485 kts | 287° |
| 2026-05-06 04:45 | 17.52519 | 90.18539 | 33888 ft | 484 kts | 287° |
| 2026-05-06 04:45 | 17.54701 | 90.11862 | 33887 ft | 484 kts | 287° |
| 2026-05-06 04:46 | 17.56864 | 90.05232 | 33889 ft | 484 kts | 287° |
| 2026-05-06 04:46 | 17.59039 | 89.98556 | 33885 ft | 485 kts | 287° |
| 2026-05-06 04:47 | 17.61227 | 89.91832 | 33896 ft | 490 kts | 287° |
| 2026-05-06 04:47 | 17.63429 | 89.85054 | 33890 ft | 493 kts | 287° |
| 2026-05-06 04:48 | 17.65643 | 89.78233 | 33889 ft | 494 kts | 287° |
| 2026-05-06 04:48 | 17.67854 | 89.71417 | 33880 ft | 494 kts | 287° |
| 2026-05-06 04:49 | 17.70058 | 89.64608 | 33888 ft | 492 kts | 287° |
| 2026-05-06 04:49 | 17.72248 | 89.57835 | 33885 ft | 490 kts | 286° |
| 2026-05-06 04:50 | 17.74432 | 89.51073 | 33886 ft | 488 kts | 286° |
| 2026-05-06 04:50 | 17.76605 | 89.44334 | 33888 ft | 487 kts | 286° |
| 2026-05-06 04:51 | 17.78772 | 89.37605 | 33889 ft | 487 kts | 286° |
| 2026-05-06 04:51 | 17.80936 | 89.30874 | 33885 ft | 487 kts | 286° |
| 2026-05-06 04:52 | 17.83099 | 89.24141 | 33885 ft | 487 kts | 286° |
| 2026-05-06 04:52 | 17.85259 | 89.17404 | 33886 ft | 487 kts | 286° |
| 2026-05-06 04:53 | 17.87420 | 89.10661 | 33884 ft | 488 kts | 286° |
| 2026-05-06 04:53 | 17.89581 | 89.03906 | 33886 ft | 488 kts | 286° |
| 2026-05-06 04:54 | 17.91736 | 88.97158 | 33887 ft | 488 kts | 286° |
| 2026-05-06 04:54 | 17.93893 | 88.90398 | 33885 ft | 488 kts | 285° |
| 2026-05-06 04:55 | 17.96047 | 88.83642 | 33883 ft | 488 kts | 286° |
| 2026-05-06 04:55 | 17.98242 | 88.76896 | 33885 ft | 488 kts | 286° |
| 2026-05-06 04:56 | 18.00455 | 88.70162 | 33883 ft | 488 kts | 286° |
| 2026-05-06 04:56 | 18.02663 | 88.63415 | 33886 ft | 488 kts | 286° |
| 2026-05-06 04:57 | 18.04862 | 88.56672 | 33885 ft | 488 kts | 286° |
| 2026-05-06 04:57 | 18.07057 | 88.49928 | 33886 ft | 488 kts | 286° |
| 2026-05-06 04:58 | 18.09251 | 88.43175 | 33885 ft | 488 kts | 285° |
| 2026-05-06 04:58 | 18.11427 | 88.36473 | 33887 ft | 488 kts | 285° |
| 2026-05-06 04:59 | 18.13629 | 88.29680 | 33890 ft | 488 kts | 285° |
| 2026-05-06 04:59 | 18.15805 | 88.22961 | 33883 ft | 488 kts | 285° |
| 2026-05-06 05:00 | 18.17988 | 88.16207 | 33884 ft | 487 kts | 285° |
| 2026-05-06 05:00 | 18.20153 | 88.09503 | 33883 ft | 487 kts | 285° |
| 2026-05-06 05:01 | 18.22328 | 88.02758 | 33887 ft | 487 kts | 285° |
| 2026-05-06 05:01 | 18.24498 | 87.96018 | 33888 ft | 487 kts | 285° |
| 2026-05-06 05:02 | 18.26667 | 87.89273 | 33884 ft | 486 kts | 285° |
| 2026-05-06 05:02 | 18.28834 | 87.82529 | 33886 ft | 486 kts | 285° |
| 2026-05-06 05:03 | 18.31043 | 87.75799 | 33890 ft | 486 kts | 286° |
| 2026-05-06 05:03 | 18.33272 | 87.69075 | 33884 ft | 487 kts | 286° |
| 2026-05-06 05:04 | 18.35495 | 87.62345 | 33883 ft | 487 kts | 285° |
| 2026-05-06 05:04 | 18.37710 | 87.55613 | 33887 ft | 487 kts | 285° |
| 2026-05-06 05:05 | 18.39920 | 87.48878 | 33887 ft | 487 kts | 285° |
| 2026-05-06 05:05 | 18.42129 | 87.42139 | 33884 ft | 487 kts | 285° |
| 2026-05-06 05:06 | 18.44336 | 87.35399 | 33879 ft | 487 kts | 285° |
| 2026-05-06 05:06 | 18.46526 | 87.28701 | 33883 ft | 487 kts | 285° |
| 2026-05-06 05:07 | 18.48728 | 87.21958 | 33876 ft | 487 kts | 285° |
| 2026-05-06 05:07 | 18.50930 | 87.15204 | 33881 ft | 487 kts | 285° |
| 2026-05-06 05:08 | 18.53129 | 87.08451 | 33877 ft | 488 kts | 285° |
| 2026-05-06 05:08 | 18.55327 | 87.01693 | 33884 ft | 488 kts | 285° |
| 2026-05-06 05:09 | 18.57526 | 86.94925 | 33885 ft | 488 kts | 285° |
| 2026-05-06 05:09 | 18.59718 | 86.88164 | 33872 ft | 488 kts | 285° |
| 2026-05-06 05:10 | 18.61912 | 86.81393 | 33875 ft | 488 kts | 285° |
| 2026-05-06 05:10 | 18.64104 | 86.74616 | 33872 ft | 488 kts | 285° |
| 2026-05-06 05:11 | 18.66291 | 86.67844 | 33874 ft | 488 kts | 285° |
| 2026-05-06 05:11 | 18.68479 | 86.61061 | 33888 ft | 488 kts | 285° |
| 2026-05-06 05:12 | 18.70666 | 86.54273 | 33880 ft | 489 kts | 285° |
| 2026-05-06 05:12 | 18.72850 | 86.47484 | 33873 ft | 489 kts | 285° |
| 2026-05-06 05:13 | 18.75032 | 86.40693 | 33878 ft | 489 kts | 285° |
| 2026-05-06 05:13 | 18.77211 | 86.33900 | 33876 ft | 489 kts | 285° |
| 2026-05-06 05:14 | 18.79387 | 86.27106 | 33873 ft | 489 kts | 285° |
| 2026-05-06 05:14 | 18.81560 | 86.20313 | 33871 ft | 488 kts | 285° |
| 2026-05-06 05:15 | 18.83730 | 86.13522 | 33883 ft | 488 kts | 285° |
| 2026-05-06 05:15 | 18.85896 | 86.06732 | 33881 ft | 488 kts | 285° |